sensor_id;sensor_type;location;lat;lon;timestamp;P1;durP1;ratioP1;P2;durP2;ratioP2
6977;SDS011;3529;53.244;10.414;2023-06-05T00:00:49;1.30;;;1.30;;
6977;SDS011;3529;53.244;10.414;2023-06-05T00:03:15;1.80;;;1.70;;
6977;SDS011;3529;53.244;10.414;2023-06-05T00:05:42;1.45;;;1.40;;
6977;SDS011;3529;53.244;10.414;2023-06-05T00:08:08;1.95;;;1.85;;
6977;SDS011;3529;53.244;10.414;2023-06-05T00:10:34;1.30;;;1.30;;
6977;SDS011;3529;53.244;10.414;2023-06-05T00:13:00;3.33;;;1.52;;
6977;SDS011;3529;53.244;10.414;2023-06-05T00:15:26;1.40;;;1.40;;
6977;SDS011;3529;53.244;10.414;2023-06-05T00:17:52;1.88;;;1.77;;
6977;SDS011;3529;53.244;10.414;2023-06-05T00:20:20;1.40;;;1.40;;
6977;SDS011;3529;53.244;10.414;2023-06-05T00:22:46;1.38;;;1.38;;
6977;SDS011;3529;53.244;10.414;2023-06-05T00:25:13;1.80;;;1.70;;
6977;SDS011;3529;53.244;10.414;2023-06-05T00:27:40;2.00;;;1.90;;
6977;SDS011;3529;53.244;10.414;2023-06-05T00:30:06;1.63;;;1.58;;
6977;SDS011;3529;53.244;10.414;2023-06-05T00:32:33;1.25;;;1.25;;
6977;SDS011;3529;53.244;10.414;2023-06-05T00:34:59;1.83;;;1.73;;
6977;SDS011;3529;53.244;10.414;2023-06-05T00:37:25;1.92;;;1.83;;
6977;SDS011;3529;53.244;10.414;2023-06-05T00:39:52;1.48;;;1.48;;
6977;SDS011;3529;53.244;10.414;2023-06-05T00:42:18;1.35;;;1.35;;
6977;SDS011;3529;53.244;10.414;2023-06-05T00:44:44;1.50;;;1.50;;
6977;SDS011;3529;53.244;10.414;2023-06-05T00:47:11;1.70;;;1.60;;
6977;SDS011;3529;53.244;10.414;2023-06-05T00:49:37;2.05;;;1.85;;
6977;SDS011;3529;53.244;10.414;2023-06-05T00:52:03;1.42;;;1.42;;
6977;SDS011;3529;53.244;10.414;2023-06-05T00:54:29;1.95;;;1.85;;
6977;SDS011;3529;53.244;10.414;2023-06-05T00:56:55;1.42;;;1.42;;
6977;SDS011;3529;53.244;10.414;2023-06-05T00:59:21;1.30;;;1.30;;
6977;SDS011;3529;53.244;10.414;2023-06-05T01:01:48;1.65;;;1.63;;
6977;SDS011;3529;53.244;10.414;2023-06-05T01:04:15;1.65;;;1.55;;
6977;SDS011;3529;53.244;10.414;2023-06-05T01:06:41;1.30;;;1.30;;
6977;SDS011;3529;53.244;10.414;2023-06-05T01:09:08;1.30;;;1.30;;
6977;SDS011;3529;53.244;10.414;2023-06-05T01:16:32;1.65;;;1.55;;
6977;SDS011;3529;53.244;10.414;2023-06-05T01:18:59;1.65;;;1.58;;
6977;SDS011;3529;53.244;10.414;2023-06-05T01:21:31;1.90;;;1.80;;
6977;SDS011;3529;53.244;10.414;2023-06-05T01:23:57;1.67;;;1.58;;
6977;SDS011;3529;53.244;10.414;2023-06-05T01:26:25;1.83;;;1.73;;
6977;SDS011;3529;53.244;10.414;2023-06-05T01:28:54;1.40;;;1.40;;
6977;SDS011;3529;53.244;10.414;2023-06-05T01:31:21;1.60;;;1.60;;
6977;SDS011;3529;53.244;10.414;2023-06-05T01:33:54;1.83;;;1.73;;
6977;SDS011;3529;53.244;10.414;2023-06-05T01:36:23;1.73;;;1.60;;
6977;SDS011;3529;53.244;10.414;2023-06-05T01:38:49;3.60;;;1.63;;
6977;SDS011;3529;53.244;10.414;2023-06-05T01:41:17;1.90;;;1.80;;
6977;SDS011;3529;53.244;10.414;2023-06-05T01:43:44;1.38;;;1.38;;
6977;SDS011;3529;53.244;10.414;2023-06-05T01:46:11;1.42;;;1.42;;
6977;SDS011;3529;53.244;10.414;2023-06-05T01:48:37;2.20;;;2.07;;
6977;SDS011;3529;53.244;10.414;2023-06-05T01:51:03;1.73;;;1.63;;
6977;SDS011;3529;53.244;10.414;2023-06-05T01:53:30;1.48;;;1.45;;
6977;SDS011;3529;53.244;10.414;2023-06-05T01:55:56;1.53;;;1.53;;
6977;SDS011;3529;53.244;10.414;2023-06-05T01:58:22;2.00;;;1.90;;
6977;SDS011;3529;53.244;10.414;2023-06-05T02:00:48;1.45;;;1.40;;
6977;SDS011;3529;53.244;10.414;2023-06-05T02:03:14;1.40;;;1.40;;
6977;SDS011;3529;53.244;10.414;2023-06-05T02:05:41;1.35;;;1.35;;
6977;SDS011;3529;53.244;10.414;2023-06-05T02:08:07;1.93;;;1.83;;
6977;SDS011;3529;53.244;10.414;2023-06-05T02:10:34;2.10;;;1.87;;
6977;SDS011;3529;53.244;10.414;2023-06-05T02:13:00;1.67;;;1.60;;
6977;SDS011;3529;53.244;10.414;2023-06-05T02:15:26;2.07;;;1.97;;
6977;SDS011;3529;53.244;10.414;2023-06-05T02:17:53;1.83;;;1.73;;
6977;SDS011;3529;53.244;10.414;2023-06-05T02:20:20;1.73;;;1.63;;
6977;SDS011;3529;53.244;10.414;2023-06-05T02:22:47;1.80;;;1.70;;
6977;SDS011;3529;53.244;10.414;2023-06-05T02:25:17;1.65;;;1.63;;
6977;SDS011;3529;53.244;10.414;2023-06-05T02:27:43;1.60;;;1.50;;
6977;SDS011;3529;53.244;10.414;2023-06-05T02:30:09;1.90;;;1.80;;
6977;SDS011;3529;53.244;10.414;2023-06-05T02:32:36;1.50;;;1.50;;
6977;SDS011;3529;53.244;10.414;2023-06-05T02:35:06;1.40;;;1.40;;
6977;SDS011;3529;53.244;10.414;2023-06-05T02:37:33;1.47;;;1.40;;
6977;SDS011;3529;53.244;10.414;2023-06-05T02:40:03;1.87;;;1.77;;
6977;SDS011;3529;53.244;10.414;2023-06-05T02:42:30;1.87;;;1.77;;
6977;SDS011;3529;53.244;10.414;2023-06-05T02:44:56;1.40;;;1.40;;
6977;SDS011;3529;53.244;10.414;2023-06-05T02:47:22;1.67;;;1.63;;
6977;SDS011;3529;53.244;10.414;2023-06-05T02:49:48;1.80;;;1.70;;
6977;SDS011;3529;53.244;10.414;2023-06-05T02:52:14;1.40;;;1.40;;
6977;SDS011;3529;53.244;10.414;2023-06-05T02:54:40;1.90;;;1.80;;
6977;SDS011;3529;53.244;10.414;2023-06-05T02:57:06;1.83;;;1.73;;
6977;SDS011;3529;53.244;10.414;2023-06-05T02:59:33;1.90;;;1.80;;
6977;SDS011;3529;53.244;10.414;2023-06-05T03:02:04;2.57;;;2.43;;
6977;SDS011;3529;53.244;10.414;2023-06-05T03:04:30;1.57;;;1.57;;
6977;SDS011;3529;53.244;10.414;2023-06-05T03:06:57;2.17;;;2.07;;
6977;SDS011;3529;53.244;10.414;2023-06-05T03:09:24;1.93;;;1.70;;
6977;SDS011;3529;53.244;10.414;2023-06-05T03:11:50;2.07;;;1.97;;
6977;SDS011;3529;53.244;10.414;2023-06-05T03:14:17;1.30;;;1.30;;
6977;SDS011;3529;53.244;10.414;2023-06-05T03:16:43;2.03;;;1.93;;
6977;SDS011;3529;53.244;10.414;2023-06-05T03:19:10;2.07;;;1.97;;
6977;SDS011;3529;53.244;10.414;2023-06-05T03:21:36;1.60;;;1.60;;
6977;SDS011;3529;53.244;10.414;2023-06-05T03:24:04;2.03;;;1.93;;
6977;SDS011;3529;53.244;10.414;2023-06-05T03:26:30;2.13;;;1.60;;
6977;SDS011;3529;53.244;10.414;2023-06-05T03:28:57;2.13;;;2.03;;
6977;SDS011;3529;53.244;10.414;2023-06-05T03:31:23;1.70;;;1.63;;
6977;SDS011;3529;53.244;10.414;2023-06-05T03:33:49;1.40;;;1.40;;
6977;SDS011;3529;53.244;10.414;2023-06-05T03:36:16;1.40;;;1.40;;
6977;SDS011;3529;53.244;10.414;2023-06-05T03:38:43;1.63;;;1.53;;
6977;SDS011;3529;53.244;10.414;2023-06-05T03:41:09;2.20;;;2.10;;
6977;SDS011;3529;53.244;10.414;2023-06-05T03:43:35;1.30;;;1.30;;
6977;SDS011;3529;53.244;10.414;2023-06-05T03:46:01;1.87;;;1.77;;
6977;SDS011;3529;53.244;10.414;2023-06-05T03:48:27;1.37;;;1.37;;
6977;SDS011;3529;53.244;10.414;2023-06-05T03:50:53;2.00;;;1.90;;
6977;SDS011;3529;53.244;10.414;2023-06-05T03:53:21;2.87;;;2.77;;
6977;SDS011;3529;53.244;10.414;2023-06-05T03:55:47;2.07;;;1.97;;
6977;SDS011;3529;53.244;10.414;2023-06-05T03:58:17;1.67;;;1.57;;
6977;SDS011;3529;53.244;10.414;2023-06-05T04:00:44;3.53;;;2.20;;
6977;SDS011;3529;53.244;10.414;2023-06-05T04:03:11;2.70;;;2.50;;
6977;SDS011;3529;53.244;10.414;2023-06-05T04:05:37;1.90;;;1.80;;
6977;SDS011;3529;53.244;10.414;2023-06-05T04:08:05;1.73;;;1.65;;
6977;SDS011;3529;53.244;10.414;2023-06-05T04:10:31;1.80;;;1.70;;
6977;SDS011;3529;53.244;10.414;2023-06-05T04:12:57;1.95;;;1.85;;
6977;SDS011;3529;53.244;10.414;2023-06-05T04:15:23;1.33;;;1.30;;
6977;SDS011;3529;53.244;10.414;2023-06-05T04:17:49;1.90;;;1.80;;
6977;SDS011;3529;53.244;10.414;2023-06-05T04:20:15;3.30;;;2.97;;
6977;SDS011;3529;53.244;10.414;2023-06-05T04:22:41;1.63;;;1.52;;
6977;SDS011;3529;53.244;10.414;2023-06-05T04:25:08;3.20;;;2.90;;
6977;SDS011;3529;53.244;10.414;2023-06-05T04:27:40;1.90;;;1.80;;
6977;SDS011;3529;53.244;10.414;2023-06-05T04:30:07;1.73;;;1.63;;
6977;SDS011;3529;53.244;10.414;2023-06-05T04:32:37;2.67;;;2.47;;
6977;SDS011;3529;53.244;10.414;2023-06-05T04:35:06;2.10;;;2.00;;
6977;SDS011;3529;53.244;10.414;2023-06-05T04:37:33;1.98;;;1.88;;
6977;SDS011;3529;53.244;10.414;2023-06-05T04:40:00;1.58;;;1.48;;
6977;SDS011;3529;53.244;10.414;2023-06-05T04:42:30;2.08;;;1.98;;
6977;SDS011;3529;53.244;10.414;2023-06-05T04:44:57;1.52;;;1.50;;
6977;SDS011;3529;53.244;10.414;2023-06-05T04:47:23;1.88;;;1.77;;
6977;SDS011;3529;53.244;10.414;2023-06-05T04:49:49;1.70;;;1.60;;
6977;SDS011;3529;53.244;10.414;2023-06-05T04:52:18;5.47;;;1.88;;
6977;SDS011;3529;53.244;10.414;2023-06-05T04:54:45;2.05;;;1.95;;
6977;SDS011;3529;53.244;10.414;2023-06-05T04:57:11;2.28;;;2.17;;
6977;SDS011;3529;53.244;10.414;2023-06-05T04:59:38;2.03;;;1.92;;
6977;SDS011;3529;53.244;10.414;2023-06-05T05:02:05;2.00;;;1.90;;
6977;SDS011;3529;53.244;10.414;2023-06-05T05:04:31;1.40;;;1.40;;
6977;SDS011;3529;53.244;10.414;2023-06-05T05:06:57;3.45;;;2.10;;
6977;SDS011;3529;53.244;10.414;2023-06-05T05:09:29;2.33;;;2.22;;
6977;SDS011;3529;53.244;10.414;2023-06-05T05:11:55;1.33;;;1.33;;
6977;SDS011;3529;53.244;10.414;2023-06-05T05:14:21;1.65;;;1.55;;
6977;SDS011;3529;53.244;10.414;2023-06-05T05:16:47;2.63;;;2.20;;
6977;SDS011;3529;53.244;10.414;2023-06-05T05:19:14;1.65;;;1.55;;
6977;SDS011;3529;53.244;10.414;2023-06-05T05:21:40;3.30;;;2.30;;
6977;SDS011;3529;53.244;10.414;2023-06-05T05:24:06;1.98;;;1.88;;
6977;SDS011;3529;53.244;10.414;2023-06-05T05:26:33;6.47;;;1.80;;
6977;SDS011;3529;53.244;10.414;2023-06-05T05:28:59;1.60;;;1.50;;
6977;SDS011;3529;53.244;10.414;2023-06-05T05:31:25;1.88;;;1.58;;
6977;SDS011;3529;53.244;10.414;2023-06-05T05:33:52;2.05;;;1.95;;
6977;SDS011;3529;53.244;10.414;2023-06-05T05:36:20;1.92;;;1.83;;
6977;SDS011;3529;53.244;10.414;2023-06-05T05:38:46;1.13;;;1.13;;
6977;SDS011;3529;53.244;10.414;2023-06-05T05:41:12;1.60;;;1.50;;
6977;SDS011;3529;53.244;10.414;2023-06-05T05:43:38;2.40;;;2.22;;
6977;SDS011;3529;53.244;10.414;2023-06-05T05:46:04;2.00;;;1.90;;
6977;SDS011;3529;53.244;10.414;2023-06-05T05:48:30;2.47;;;1.70;;
6977;SDS011;3529;53.244;10.414;2023-06-05T05:50:56;2.50;;;2.33;;
6977;SDS011;3529;53.244;10.414;2023-06-05T05:53:22;1.70;;;1.60;;
6977;SDS011;3529;53.244;10.414;2023-06-05T05:55:48;1.95;;;1.85;;
6977;SDS011;3529;53.244;10.414;2023-06-05T05:58:14;1.52;;;1.48;;
6977;SDS011;3529;53.244;10.414;2023-06-05T06:00:41;2.15;;;2.05;;
6977;SDS011;3529;53.244;10.414;2023-06-05T06:03:08;1.50;;;1.50;;
6977;SDS011;3529;53.244;10.414;2023-06-05T06:05:33;1.45;;;1.40;;
6977;SDS011;3529;53.244;10.414;2023-06-05T06:08:01;2.45;;;2.30;;
6977;SDS011;3529;53.244;10.414;2023-06-05T06:10:28;2.10;;;2.00;;
6977;SDS011;3529;53.244;10.414;2023-06-05T06:12:55;1.90;;;1.80;;
6977;SDS011;3529;53.244;10.414;2023-06-05T06:15:22;1.85;;;1.75;;
6977;SDS011;3529;53.244;10.414;2023-06-05T06:17:48;1.95;;;1.85;;
6977;SDS011;3529;53.244;10.414;2023-06-05T06:20:14;2.47;;;1.85;;
6977;SDS011;3529;53.244;10.414;2023-06-05T06:22:41;1.50;;;1.50;;
6977;SDS011;3529;53.244;10.414;2023-06-05T06:25:07;1.73;;;1.63;;
6977;SDS011;3529;53.244;10.414;2023-06-05T06:27:34;1.77;;;1.67;;
6977;SDS011;3529;53.244;10.414;2023-06-05T06:30:00;1.75;;;1.65;;
6977;SDS011;3529;53.244;10.414;2023-06-05T06:32:26;1.40;;;1.40;;
6977;SDS011;3529;53.244;10.414;2023-06-05T06:34:52;1.75;;;1.65;;
6977;SDS011;3529;53.244;10.414;2023-06-05T06:37:19;1.88;;;1.77;;
6977;SDS011;3529;53.244;10.414;2023-06-05T06:39:45;1.42;;;1.33;;
6977;SDS011;3529;53.244;10.414;2023-06-05T06:42:11;2.67;;;2.47;;
6977;SDS011;3529;53.244;10.414;2023-06-05T06:44:38;1.58;;;1.48;;
6977;SDS011;3529;53.244;10.414;2023-06-05T06:47:04;1.58;;;1.48;;
6977;SDS011;3529;53.244;10.414;2023-06-05T06:49:30;2.47;;;2.38;;
6977;SDS011;3529;53.244;10.414;2023-06-05T06:51:56;1.55;;;1.48;;
6977;SDS011;3529;53.244;10.414;2023-06-05T06:54:22;1.98;;;1.88;;
6977;SDS011;3529;53.244;10.414;2023-06-05T06:56:51;1.48;;;1.42;;
6977;SDS011;3529;53.244;10.414;2023-06-05T06:59:17;1.85;;;1.75;;
6977;SDS011;3529;53.244;10.414;2023-06-05T07:01:44;1.92;;;1.83;;
6977;SDS011;3529;53.244;10.414;2023-06-05T07:04:15;1.65;;;1.55;;
6977;SDS011;3529;53.244;10.414;2023-06-05T07:06:45;1.77;;;1.67;;
6977;SDS011;3529;53.244;10.414;2023-06-05T07:09:13;1.30;;;1.30;;
6977;SDS011;3529;53.244;10.414;2023-06-05T07:11:39;1.85;;;1.75;;
6977;SDS011;3529;53.244;10.414;2023-06-05T07:14:05;1.70;;;1.60;;
6977;SDS011;3529;53.244;10.414;2023-06-05T07:16:32;2.25;;;1.20;;
6977;SDS011;3529;53.244;10.414;2023-06-05T07:18:58;1.33;;;1.33;;
6977;SDS011;3529;53.244;10.414;2023-06-05T07:21:24;2.00;;;1.85;;
6977;SDS011;3529;53.244;10.414;2023-06-05T07:23:52;1.23;;;1.15;;
6977;SDS011;3529;53.244;10.414;2023-06-05T07:26:18;2.03;;;1.35;;
6977;SDS011;3529;53.244;10.414;2023-06-05T07:28:44;1.00;;;1.00;;
6977;SDS011;3529;53.244;10.414;2023-06-05T07:31:12;1.00;;;1.00;;
6977;SDS011;3529;53.244;10.414;2023-06-05T07:33:39;0.93;;;0.93;;
6977;SDS011;3529;53.244;10.414;2023-06-05T07:36:06;1.33;;;0.93;;
6977;SDS011;3529;53.244;10.414;2023-06-05T07:38:32;1.08;;;1.08;;
6977;SDS011;3529;53.244;10.414;2023-06-05T07:40:58;0.90;;;0.90;;
6977;SDS011;3529;53.244;10.414;2023-06-05T07:43:26;1.05;;;0.95;;
6977;SDS011;3529;53.244;10.414;2023-06-05T07:45:52;2.03;;;1.13;;
6977;SDS011;3529;53.244;10.414;2023-06-05T07:48:18;1.27;;;1.10;;
6977;SDS011;3529;53.244;10.414;2023-06-05T07:50:44;5.15;;;1.40;;
6977;SDS011;3529;53.244;10.414;2023-06-05T07:53:10;1.00;;;1.00;;
6977;SDS011;3529;53.244;10.414;2023-06-05T07:55:36;1.42;;;1.20;;
6977;SDS011;3529;53.244;10.414;2023-06-05T07:58:02;1.50;;;1.40;;
6977;SDS011;3529;53.244;10.414;2023-06-05T08:00:28;1.00;;;1.00;;
6977;SDS011;3529;53.244;10.414;2023-06-05T08:02:55;1.33;;;1.25;;
6977;SDS011;3529;53.244;10.414;2023-06-05T08:05:22;1.40;;;1.30;;
6977;SDS011;3529;53.244;10.414;2023-06-05T08:07:48;1.25;;;1.20;;
6977;SDS011;3529;53.244;10.414;2023-06-05T08:10:15;0.90;;;0.90;;
6977;SDS011;3529;53.244;10.414;2023-06-05T08:12:41;1.42;;;1.33;;
6977;SDS011;3529;53.244;10.414;2023-06-05T08:15:07;0.77;;;0.77;;
6977;SDS011;3529;53.244;10.414;2023-06-05T08:17:33;0.60;;;0.60;;
6977;SDS011;3529;53.244;10.414;2023-06-05T08:19:59;0.90;;;0.90;;
6977;SDS011;3529;53.244;10.414;2023-06-05T08:22:25;0.98;;;0.98;;
6977;SDS011;3529;53.244;10.414;2023-06-05T08:24:53;0.93;;;0.93;;
6977;SDS011;3529;53.244;10.414;2023-06-05T08:27:21;1.45;;;1.38;;
6977;SDS011;3529;53.244;10.414;2023-06-05T08:29:47;1.13;;;1.10;;
6977;SDS011;3529;53.244;10.414;2023-06-05T08:32:13;1.10;;;1.08;;
6977;SDS011;3529;53.244;10.414;2023-06-05T08:34:39;0.88;;;0.88;;
6977;SDS011;3529;53.244;10.414;2023-06-05T08:37:05;1.95;;;1.45;;
6977;SDS011;3529;53.244;10.414;2023-06-05T08:39:31;1.20;;;1.20;;
6977;SDS011;3529;53.244;10.414;2023-06-05T08:41:58;1.63;;;1.27;;
6977;SDS011;3529;53.244;10.414;2023-06-05T08:44:29;4.22;;;1.60;;
6977;SDS011;3529;53.244;10.414;2023-06-05T08:47:00;1.00;;;1.00;;
6977;SDS011;3529;53.244;10.414;2023-06-05T08:49:26;1.20;;;1.20;;
6977;SDS011;3529;53.244;10.414;2023-06-05T08:51:58;1.23;;;1.13;;
6977;SDS011;3529;53.244;10.414;2023-06-05T08:54:27;0.98;;;0.98;;
6977;SDS011;3529;53.244;10.414;2023-06-05T08:56:54;2.88;;;1.08;;
6977;SDS011;3529;53.244;10.414;2023-06-05T08:59:20;1.20;;;1.13;;
6977;SDS011;3529;53.244;10.414;2023-06-05T09:01:49;1.15;;;1.15;;
6977;SDS011;3529;53.244;10.414;2023-06-05T09:04:15;1.08;;;1.08;;
6977;SDS011;3529;53.244;10.414;2023-06-05T09:06:47;1.08;;;0.75;;
6977;SDS011;3529;53.244;10.414;2023-06-05T09:09:16;1.33;;;1.00;;
6977;SDS011;3529;53.244;10.414;2023-06-05T09:11:43;4.32;;;1.48;;
6977;SDS011;3529;53.244;10.414;2023-06-05T09:14:09;1.30;;;1.20;;
6977;SDS011;3529;53.244;10.414;2023-06-05T09:19:02;0.80;;;0.80;;
6977;SDS011;3529;53.244;10.414;2023-06-05T09:21:29;0.88;;;0.88;;
6977;SDS011;3529;53.244;10.414;2023-06-05T09:24:17;0.60;;;0.60;;
6977;SDS011;3529;53.244;10.414;2023-06-05T09:31:48;0.73;;;0.73;;
6977;SDS011;3529;53.244;10.414;2023-06-05T09:34:21;2.92;;;0.90;;
6977;SDS011;3529;53.244;10.414;2023-06-05T09:36:47;0.50;;;0.50;;
6977;SDS011;3529;53.244;10.414;2023-06-05T09:39:13;2.42;;;1.08;;
6977;SDS011;3529;53.244;10.414;2023-06-05T09:41:44;2.45;;;0.88;;
6977;SDS011;3529;53.244;10.414;2023-06-05T09:44:10;0.82;;;0.82;;
6977;SDS011;3529;53.244;10.414;2023-06-05T09:49:23;0.73;;;0.73;;
6977;SDS011;3529;53.244;10.414;2023-06-05T09:51:49;0.60;;;0.60;;
6977;SDS011;3529;53.244;10.414;2023-06-05T09:54:15;1.75;;;0.98;;
6977;SDS011;3529;53.244;10.414;2023-06-05T09:56:48;0.73;;;0.73;;
6977;SDS011;3529;53.244;10.414;2023-06-05T09:59:21;1.98;;;0.70;;
6977;SDS011;3529;53.244;10.414;2023-06-05T10:01:48;0.80;;;0.80;;
6977;SDS011;3529;53.244;10.414;2023-06-05T10:04:15;0.70;;;0.70;;
6977;SDS011;3529;53.244;10.414;2023-06-05T10:06:42;1.48;;;1.13;;
6977;SDS011;3529;53.244;10.414;2023-06-05T10:09:08;0.80;;;0.80;;
6977;SDS011;3529;53.244;10.414;2023-06-05T10:11:36;1.17;;;0.82;;
6977;SDS011;3529;53.244;10.414;2023-06-05T10:14:03;0.93;;;0.93;;
6977;SDS011;3529;53.244;10.414;2023-06-05T10:16:30;0.68;;;0.68;;
6977;SDS011;3529;53.244;10.414;2023-06-05T10:18:57;2.47;;;0.80;;
6977;SDS011;3529;53.244;10.414;2023-06-05T10:21:25;1.83;;;1.17;;
6977;SDS011;3529;53.244;10.414;2023-06-05T10:24:06;0.60;;;0.60;;
6977;SDS011;3529;53.244;10.414;2023-06-05T10:31:52;0.65;;;0.65;;
6977;SDS011;3529;53.244;10.414;2023-06-05T10:34:28;1.05;;;0.95;;
6977;SDS011;3529;53.244;10.414;2023-06-05T10:39:38;0.70;;;0.70;;
6977;SDS011;3529;53.244;10.414;2023-06-05T10:42:04;0.90;;;0.90;;
6977;SDS011;3529;53.244;10.414;2023-06-05T10:44:43;0.77;;;0.77;;
6977;SDS011;3529;53.244;10.414;2023-06-05T10:52:38;0.82;;;0.82;;
6977;SDS011;3529;53.244;10.414;2023-06-05T10:55:04;0.98;;;0.98;;
6977;SDS011;3529;53.244;10.414;2023-06-05T10:58:01;1.13;;;1.02;;
6977;SDS011;3529;53.244;10.414;2023-06-05T11:00:17;0.85;;;0.85;;
6977;SDS011;3529;53.244;10.414;2023-06-05T11:02:46;0.73;;;0.63;;
6977;SDS011;3529;53.244;10.414;2023-06-05T11:05:12;0.90;;;0.90;;
6977;SDS011;3529;53.244;10.414;2023-06-05T11:07:39;0.68;;;0.68;;
6977;SDS011;3529;53.244;10.414;2023-06-05T11:10:06;0.82;;;0.80;;
6977;SDS011;3529;53.244;10.414;2023-06-05T11:15:01;1.10;;;1.10;;
6977;SDS011;3529;53.244;10.414;2023-06-05T11:17:31;0.75;;;0.75;;
6977;SDS011;3529;53.244;10.414;2023-06-05T11:20:01;0.93;;;0.93;;
6977;SDS011;3529;53.244;10.414;2023-06-05T11:22:30;0.63;;;0.63;;
6977;SDS011;3529;53.244;10.414;2023-06-05T11:30:25;0.80;;;0.80;;
6977;SDS011;3529;53.244;10.414;2023-06-05T11:32:53;0.70;;;0.70;;
6977;SDS011;3529;53.244;10.414;2023-06-05T11:35:26;1.05;;;1.00;;
6977;SDS011;3529;53.244;10.414;2023-06-05T11:40:37;0.80;;;0.80;;
6977;SDS011;3529;53.244;10.414;2023-06-05T11:43:07;0.80;;;0.80;;
6977;SDS011;3529;53.244;10.414;2023-06-05T11:45:34;0.80;;;0.80;;
6977;SDS011;3529;53.244;10.414;2023-06-05T11:48:06;0.93;;;0.82;;
6977;SDS011;3529;53.244;10.414;2023-06-05T11:50:33;0.70;;;0.70;;
6977;SDS011;3529;53.244;10.414;2023-06-05T11:53:06;0.50;;;0.50;;
6977;SDS011;3529;53.244;10.414;2023-06-05T11:55:32;0.73;;;0.73;;
6977;SDS011;3529;53.244;10.414;2023-06-05T11:58:28;0.77;;;0.77;;
6977;SDS011;3529;53.244;10.414;2023-06-05T12:03:30;1.00;;;1.00;;
6977;SDS011;3529;53.244;10.414;2023-06-05T12:05:57;1.30;;;0.75;;
6977;SDS011;3529;53.244;10.414;2023-06-05T12:08:27;0.70;;;0.70;;
6977;SDS011;3529;53.244;10.414;2023-06-05T12:10:55;1.00;;;0.95;;
6977;SDS011;3529;53.244;10.414;2023-06-05T12:13:21;0.88;;;0.88;;
6977;SDS011;3529;53.244;10.414;2023-06-05T12:15:57;0.60;;;0.60;;
6977;SDS011;3529;53.244;10.414;2023-06-05T12:18:32;0.75;;;0.75;;
6977;SDS011;3529;53.244;10.414;2023-06-05T12:20:59;0.73;;;0.73;;
6977;SDS011;3529;53.244;10.414;2023-06-05T12:23:25;4.95;;;1.00;;
6977;SDS011;3529;53.244;10.414;2023-06-05T12:26:01;0.70;;;0.70;;
6977;SDS011;3529;53.244;10.414;2023-06-05T12:28:28;2.38;;;0.68;;
6977;SDS011;3529;53.244;10.414;2023-06-05T12:30:54;0.63;;;0.63;;
6977;SDS011;3529;53.244;10.414;2023-06-05T12:33:20;0.95;;;0.95;;
6977;SDS011;3529;53.244;10.414;2023-06-05T12:35:46;0.95;;;0.90;;
6977;SDS011;3529;53.244;10.414;2023-06-05T12:38:13;0.60;;;0.60;;
6977;SDS011;3529;53.244;10.414;2023-06-05T12:40:39;0.77;;;0.77;;
6977;SDS011;3529;53.244;10.414;2023-06-05T12:43:15;0.70;;;0.70;;
6977;SDS011;3529;53.244;10.414;2023-06-05T12:45:42;0.60;;;0.60;;
6977;SDS011;3529;53.244;10.414;2023-06-05T12:48:08;0.75;;;0.75;;
6977;SDS011;3529;53.244;10.414;2023-06-05T12:50:35;0.70;;;0.70;;
6977;SDS011;3529;53.244;10.414;2023-06-05T12:53:01;0.82;;;0.80;;
6977;SDS011;3529;53.244;10.414;2023-06-05T12:55:27;0.85;;;0.80;;
6977;SDS011;3529;53.244;10.414;2023-06-05T12:57:53;0.80;;;0.80;;
6977;SDS011;3529;53.244;10.414;2023-06-05T13:00:19;0.70;;;0.70;;
6977;SDS011;3529;53.244;10.414;2023-06-05T13:02:46;1.02;;;0.85;;
6977;SDS011;3529;53.244;10.414;2023-06-05T13:05:15;0.90;;;0.90;;
6977;SDS011;3529;53.244;10.414;2023-06-05T13:07:41;0.75;;;0.75;;
6977;SDS011;3529;53.244;10.414;2023-06-05T13:10:08;1.20;;;1.10;;
6977;SDS011;3529;53.244;10.414;2023-06-05T13:12:36;0.85;;;0.85;;
6977;SDS011;3529;53.244;10.414;2023-06-05T13:15:02;1.00;;;1.00;;
6977;SDS011;3529;53.244;10.414;2023-06-05T13:17:31;0.63;;;0.63;;
6977;SDS011;3529;53.244;10.414;2023-06-05T13:20:00;0.93;;;0.93;;
6977;SDS011;3529;53.244;10.414;2023-06-05T13:22:31;0.90;;;0.90;;
6977;SDS011;3529;53.244;10.414;2023-06-05T13:24:57;0.82;;;0.73;;
6977;SDS011;3529;53.244;10.414;2023-06-05T13:27:23;0.90;;;0.90;;
6977;SDS011;3529;53.244;10.414;2023-06-05T13:29:49;0.80;;;0.80;;
6977;SDS011;3529;53.244;10.414;2023-06-05T13:32:15;1.05;;;1.05;;
6977;SDS011;3529;53.244;10.414;2023-06-05T13:34:42;0.80;;;0.80;;
6977;SDS011;3529;53.244;10.414;2023-06-05T13:37:08;0.77;;;0.77;;
6977;SDS011;3529;53.244;10.414;2023-06-05T13:39:33;0.77;;;0.77;;
6977;SDS011;3529;53.244;10.414;2023-06-05T13:41:59;0.70;;;0.70;;
6977;SDS011;3529;53.244;10.414;2023-06-05T13:44:27;0.70;;;0.70;;
6977;SDS011;3529;53.244;10.414;2023-06-05T13:46:53;1.05;;;1.05;;
6977;SDS011;3529;53.244;10.414;2023-06-05T13:49:20;0.93;;;0.93;;
6977;SDS011;3529;53.244;10.414;2023-06-05T13:51:46;0.80;;;0.80;;
6977;SDS011;3529;53.244;10.414;2023-06-05T13:54:12;0.88;;;0.88;;
6977;SDS011;3529;53.244;10.414;2023-06-05T13:56:38;0.88;;;0.88;;
6977;SDS011;3529;53.244;10.414;2023-06-05T13:59:04;1.00;;;1.00;;
6977;SDS011;3529;53.244;10.414;2023-06-05T14:01:30;1.05;;;1.00;;
6977;SDS011;3529;53.244;10.414;2023-06-05T14:03:56;0.90;;;0.90;;
6977;SDS011;3529;53.244;10.414;2023-06-05T14:06:22;1.02;;;1.02;;
6977;SDS011;3529;53.244;10.414;2023-06-05T14:08:48;0.75;;;0.75;;
6977;SDS011;3529;53.244;10.414;2023-06-05T14:11:17;1.52;;;1.42;;
6977;SDS011;3529;53.244;10.414;2023-06-05T14:13:43;1.00;;;1.00;;
6977;SDS011;3529;53.244;10.414;2023-06-05T14:16:09;0.50;;;0.50;;
6977;SDS011;3529;53.244;10.414;2023-06-05T14:18:36;0.60;;;0.60;;
6977;SDS011;3529;53.244;10.414;2023-06-05T14:21:02;0.93;;;0.93;;
6977;SDS011;3529;53.244;10.414;2023-06-05T14:23:28;1.08;;;1.08;;
6977;SDS011;3529;53.244;10.414;2023-06-05T14:25:54;1.13;;;1.13;;
6977;SDS011;3529;53.244;10.414;2023-06-05T14:28:21;1.17;;;1.15;;
6977;SDS011;3529;53.244;10.414;2023-06-05T14:30:47;1.13;;;1.10;;
6977;SDS011;3529;53.244;10.414;2023-06-05T14:33:13;0.85;;;0.85;;
6977;SDS011;3529;53.244;10.414;2023-06-05T14:35:41;0.60;;;0.60;;
6977;SDS011;3529;53.244;10.414;2023-06-05T14:38:08;0.90;;;0.90;;
6977;SDS011;3529;53.244;10.414;2023-06-05T14:40:37;0.90;;;0.90;;
6977;SDS011;3529;53.244;10.414;2023-06-05T14:43:03;0.90;;;0.90;;
6977;SDS011;3529;53.244;10.414;2023-06-05T14:45:30;0.63;;;0.63;;
6977;SDS011;3529;53.244;10.414;2023-06-05T14:47:56;1.10;;;1.10;;
6977;SDS011;3529;53.244;10.414;2023-06-05T14:50:23;1.17;;;1.10;;
6977;SDS011;3529;53.244;10.414;2023-06-05T14:52:49;1.30;;;1.20;;
6977;SDS011;3529;53.244;10.414;2023-06-05T14:55:15;7.60;;;1.05;;
6977;SDS011;3529;53.244;10.414;2023-06-05T14:57:41;1.58;;;1.30;;
6977;SDS011;3529;53.244;10.414;2023-06-05T15:00:07;1.00;;;1.00;;
6977;SDS011;3529;53.244;10.414;2023-06-05T15:02:34;0.90;;;0.90;;
6977;SDS011;3529;53.244;10.414;2023-06-05T15:05:00;0.88;;;0.88;;
6977;SDS011;3529;53.244;10.414;2023-06-05T15:07:36;0.98;;;0.98;;
6977;SDS011;3529;53.244;10.414;2023-06-05T15:10:02;0.93;;;0.90;;
6977;SDS011;3529;53.244;10.414;2023-06-05T15:12:28;1.42;;;1.20;;
6977;SDS011;3529;53.244;10.414;2023-06-05T15:14:55;0.75;;;0.75;;
6977;SDS011;3529;53.244;10.414;2023-06-05T15:17:21;1.00;;;1.00;;
6977;SDS011;3529;53.244;10.414;2023-06-05T15:19:47;6.28;;;0.90;;
6977;SDS011;3529;53.244;10.414;2023-06-05T15:22:13;0.77;;;0.77;;
6977;SDS011;3529;53.244;10.414;2023-06-05T15:24:39;1.00;;;1.00;;
6977;SDS011;3529;53.244;10.414;2023-06-05T15:27:05;1.08;;;1.08;;
6977;SDS011;3529;53.244;10.414;2023-06-05T15:29:32;1.27;;;1.20;;
6977;SDS011;3529;53.244;10.414;2023-06-05T15:31:58;1.50;;;1.40;;
6977;SDS011;3529;53.244;10.414;2023-06-05T15:34:24;1.17;;;1.08;;
6977;SDS011;3529;53.244;10.414;2023-06-05T15:36:50;0.80;;;0.80;;
6977;SDS011;3529;53.244;10.414;2023-06-05T15:39:16;1.02;;;1.02;;
6977;SDS011;3529;53.244;10.414;2023-06-05T15:41:42;3.72;;;1.05;;